Time;durP1;ratioP1;P1;durP2;ratioP2;P2;SDS_P1;SDS_P2;PMS_P1;PMS_P2;Temp;Humidity;BMP_temperature;BMP_pressure;BME280_temperature;BME280_humidity;BME280_pressure;Samples;Min_cycle;Max_cycle;Signal;HPM_P1;HPM_P2
2022/11/09 00:00:14;;;;;;;75.38;34.53;;;;;;;12.03;64.84;100382.03;3156564;28;20462;-71
2022/11/09 00:01:46;;;;;;;75.72;33.83;;;;;;;12.01;64.97;100391.69;3156436;28;20060;-69
2022/11/09 00:03:17;;;;;;;75.20;33.42;;;;;;;12.00;65.25;100379.53;3157428;28;20056;-70
2022/11/09 00:04:49;;;;;;;76.60;32.53;;;;;;;12.00;65.03;100386.53;3157450;28;20044;-69
2022/11/09 00:06:21;;;;;;;73.20;32.75;;;;;;;11.92;65.52;100376.44;3157143;28;20078;-68
2022/11/09 00:07:53;;;;;;;72.85;34.00;;;;;;;11.96;65.15;100383.19;3157536;28;20052;-69
2022/11/09 00:09:25;;;;;;;78.88;34.85;;;;;;;11.95;65.55;100378.03;3161995;28;20044;-69
2022/11/09 00:11:03;;;;;;;75.32;34.45;;;;;;;11.94;65.30;100384.16;3166120;28;20474;-69
2022/11/09 00:12:35;;;;;;;76.25;34.70;;;;;;;11.92;65.57;100392.09;3157060;28;20055;-69
2022/11/09 00:14:14;;;;;;;80.22;35.95;;;;;;;11.91;65.61;100390.38;3157221;28;20043;-71
2022/11/09 00:15:46;;;;;;;104.00;47.25;;;;;;;11.79;65.58;100375.19;3155934;28;20044;-69
2022/11/09 00:17:18;;;;;;;88.53;37.25;;;;;;;11.88;65.65;100389.66;3157654;28;20060;-69
2022/11/09 00:18:52;;;;;;;78.05;37.22;;;;;;;11.90;65.62;100388.69;3157366;28;20060;-69
2022/11/09 00:20:23;;;;;;;82.47;37.25;;;;;;;11.67;65.48;100354.81;3156885;28;20063;-69
2022/11/09 00:21:55;;;;;;;81.97;38.47;;;;;;;11.84;65.56;100381.91;3157265;28;20060;-69
2022/11/09 00:23:27;;;;;;;78.75;38.92;;;;;;;11.79;65.76;100369.97;3157415;28;20044;-69
2022/11/09 00:24:59;;;;;;;90.78;39.40;;;;;;;11.84;65.92;100379.31;3156519;28;20431;-68
2022/11/09 00:26:31;;;;;;;92.53;42.53;;;;;;;11.80;65.67;100382.09;3153563;28;20070;-68
2022/11/09 00:28:03;;;;;;;88.88;40.42;;;;;;;11.82;65.96;100386.34;3146905;28;20048;-68
2022/11/09 00:29:36;;;;;;;78.57;37.70;;;;;;;11.54;65.86;100339.66;3146813;28;20082;-68
2022/11/09 00:31:12;;;;;;;86.78;40.00;;;;;;;11.78;65.96;100381.31;3147405;28;20063;-68
2022/11/09 00:32:44;;;;;;;95.53;39.28;;;;;;;11.78;66.28;100381.31;3147629;28;20052;-70
2022/11/09 00:34:16;;;;;;;81.60;38.42;;;;;;;11.73;65.86;100380.66;3147715;28;20055;-69
2022/11/09 00:35:48;;;;;;;75.70;37.90;;;;;;;11.76;66.11;100383.13;3147776;28;20062;-68
2022/11/09 00:37:20;;;;;;;83.63;38.50;;;;;;;11.74;66.00;100378.00;3147611;28;20062;-67
2022/11/09 00:38:53;;;;;;;94.72;39.88;;;;;;;11.69;66.24;100374.72;3147035;28;20088;-69
2022/11/09 00:40:24;;;;;;;80.50;36.78;;;;;;;11.71;66.26;100390.28;3152043;28;20054;-69
2022/11/09 00:41:56;;;;;;;79.53;38.00;;;;;;;11.70;66.08;100386.84;3147918;28;20071;-69
2022/11/09 00:43:27;;;;;;;86.13;38.45;;;;;;;11.70;66.34;100383.38;3147121;28;20055;-69
2022/11/09 00:45:00;;;;;;;76.07;36.45;;;;;;;11.69;66.18;100384.31;3146974;28;20414;-69
2022/11/09 00:46:32;;;;;;;;;;;;;;;11.56;66.40;100390.00;3148980;28;20156;-69
2022/11/09 00:48:09;;;;;;;75.40;36.55;;;;;;;11.56;66.39;100389.16;3147873;28;19932;-71
2022/11/09 00:49:41;;;;;;;81.57;36.63;;;;;;;11.58;66.65;100395.16;3147082;28;20060;-68
2022/11/09 00:51:17;;;;;;;84.63;38.63;;;;;;;11.59;66.56;100389.91;3147917;28;20057;-69
2022/11/09 00:52:49;;;;;;;83.00;37.78;;;;;;;11.57;67.03;100386.50;3147177;28;20052;-70
2022/11/09 00:54:21;;;;;;;81.20;37.97;;;;;;;11.56;66.83;100383.94;3147188;28;20063;-68
2022/11/09 00:55:54;;;;;;;84.18;37.33;;;;;;;11.56;66.96;100386.53;3147315;28;20527;-69
2022/11/09 00:57:26;;;;;;;;;;;;;;;11.47;66.99;100392.97;3146843;28;20044;-70
2022/11/09 00:58:58;;;;;;;82.15;34.97;;;;;;;11.31;67.11;100373.63;3146882;28;19924;-69
2022/11/09 01:00:32;;;;;;;76.65;36.17;;;;;;;11.40;67.54;100386.31;3146875;28;20505;-69
2022/11/09 01:02:04;;;;;;;77.43;35.17;;;;;;;11.39;67.34;100379.41;3146650;28;20138;-69
2022/11/09 01:03:36;;;;;;;81.47;35.05;;;;;;;11.35;67.58;100377.81;3146876;28;20063;-70
2022/11/09 01:05:08;;;;;;;84.93;34.92;;;;;;;11.37;67.86;100389.03;3147756;28;20056;-68
2022/11/09 01:06:41;;;;;;;76.72;34.20;;;;;;;11.34;67.68;100389.16;3147941;28;20112;-68
2022/11/09 01:08:13;;;;;;;80.38;36.15;;;;;;;11.33;67.88;100385.72;3148429;28;20056;-68
2022/11/09 01:09:45;;;;;;;84.57;35.47;;;;;;;11.31;67.71;100379.69;3155759;28;20048;-68
2022/11/09 01:11:19;;;;;;;87.38;36.92;;;;;;;11.32;67.73;100378.78;3153436;28;20110;-69
2022/11/09 01:12:52;;;;;;;69.60;35.38;;;;;;;11.30;67.42;100380.63;3146573;28;20047;-68
2022/11/09 01:14:24;;;;;;;74.13;34.58;;;;;;;11.28;67.57;100374.59;3147009;28;20056;-70
2022/11/09 01:15:57;;;;;;;77.40;33.35;;;;;;;11.31;67.56;100373.63;3146037;28;20624;-69
2022/11/09 01:17:29;;;;;;;;;;;;;;;11.20;67.57;100379.25;3147664;28;20082;-69
2022/11/09 01:19:01;;;;;;;79.80;34.17;;;;;;;11.18;67.87;100383.69;3147205;28;20388;-69
2022/11/09 01:20:33;;;;;;;77.18;35.45;;;;;;;11.16;68.02;100373.31;3147582;28;20052;-69
2022/11/09 01:22:05;;;;;;;76.65;34.60;;;;;;;11.21;67.65;100380.09;3146680;28;20517;-69
2022/11/09 01:23:37;;;;;;;66.88;33.92;;;;;;;11.19;67.74;100376.72;3146648;28;20163;-69
2022/11/09 01:25:10;;;;;;;77.32;35.33;;;;;;;11.16;67.71;100369.88;3146519;28;20048;-68
2022/11/09 01:26:42;;;;;;;74.97;34.38;;;;;;;11.18;68.09;100380.22;3146726;28;20475;-68
2022/11/09 01:28:13;;;;;;;83.72;37.70;;;;;;;11.18;67.70;100377.59;3146226;28;20169;-68
2022/11/09 01:29:45;;;;;;;75.47;33.67;;;;;;;11.17;67.71;100381.97;3146472;28;20521;-68
2022/11/09 01:31:20;;;;;;;83.22;35.90;;;;;;;11.13;67.74;100376.03;3146941;28;20048;-68
2022/11/09 01:32:53;;;;;;;73.53;35.90;;;;;;;11.09;67.95;100374.47;3145601;28;20414;-68
2022/11/09 01:34:28;;;;;;;67.25;34.30;;;;;;;10.81;67.80;100326.91;3146806;28;20513;-68
2022/11/09 01:36:01;;;;;;;78.47;34.25;;;;;;;11.12;68.09;100378.69;3147950;28;20135;-69
2022/11/09 01:37:33;;;;;;;72.75;33.67;;;;;;;11.09;68.00;100373.59;3145950;28;20079;-69
2022/11/09 01:39:05;;;;;;;78.80;35.28;;;;;;;11.08;67.99;100375.34;3149696;28;20056;-68
2022/11/09 01:40:40;;;;;;;78.47;35.72;;;;;;;10.77;67.93;100322.72;3149863;28;20101;-69
2022/11/09 01:42:12;;;;;;;70.75;33.92;;;;;;;11.04;67.72;100373.78;3146252;28;20051;-69
2022/11/09 01:43:45;;;;;;;80.80;35.05;;;;;;;10.95;68.14;100365.47;3147697;28;20067;-69
2022/11/09 01:45:22;;;;;;;82.63;33.90;;;;;;;11.02;68.05;100372.97;3147552;28;20048;-69
2022/11/09 01:46:59;;;;;;;70.07;32.60;;;;;;;11.01;67.95;100378.28;3146698;28;20736;-69
2022/11/09 01:48:36;;;;;;;77.63;34.45;;;;;;;11.00;67.79;100382.59;3146978;28;20068;-69
2022/11/09 01:50:12;;;;;;;79.45;34.45;;;;;;;10.97;68.25;100382.72;3145885;28;20593;-68
2022/11/09 01:51:47;;;;;;;68.15;33.28;;;;;;;10.96;67.92;100378.44;3145978;28;20086;-69
2022/11/09 01:53:23;;;;;;;73.25;33.30;;;;;;;10.76;68.24;100344.44;3147244;28;20055;-69
2022/11/09 01:54:59;;;;;;;77.35;32.65;;;;;;;10.70;68.11;100343.75;3147035;28;20414;-69
2022/11/09 01:56:33;;;;;;;71.13;32.83;;;;;;;10.91;68.00;100372.53;3147604;28;20058;-69
2022/11/09 01:58:07;;;;;;;78.28;36.67;;;;;;;10.90;67.99;100376.06;3146600;28;20315;-69
2022/11/09 01:59:47;;;;;;;72.68;35.03;;;;;;;10.89;68.13;100371.75;3146442;28;20084;-69
2022/11/09 02:01:19;;;;;;;64.28;32.08;;;;;;;10.86;68.22;100382.31;3146495;28;20158;-69
2022/11/09 02:02:56;;;;;;;68.22;32.20;;;;;;;10.87;68.07;100378.78;3145895;28;20534;-69
2022/11/09 02:04:32;;;;;;;67.10;31.85;;;;;;;10.84;68.13;100373.69;3145744;28;20064;-69
2022/11/09 02:06:08;;;;;;;68.53;33.08;;;;;;;10.82;68.16;100380.69;3145719;28;20250;-69
2022/11/09 02:07:41;;;;;;;73.82;34.30;;;;;;;10.81;68.44;100376.41;3148229;28;20172;-69
2022/11/09 02:09:18;;;;;;;73.55;33.55;;;;;;;10.78;68.11;100369.53;3150702;28;20220;-69
2022/11/09 02:10:58;;;;;;;66.63;32.78;;;;;;;10.74;68.24;100370.56;3152941;28;20083;-69
2022/11/09 02:12:33;;;;;;;74.50;32.78;;;;;;;10.42;68.48;100320.50;3148899;28;20684;-69
2022/11/09 02:14:06;;;;;;;70.80;32.95;;;;;;;10.74;68.39;100375.78;3148742;28;20052;-69
2022/11/09 02:15:37;;;;;;;;;;;;;;;10.62;68.63;100379.69;3148698;28;20801;-69
2022/11/09 02:17:11;;;;;;;68.68;30.25;;;;;;;10.37;69.34;100347.59;3147539;28;19934;-69
2022/11/09 02:18:48;;;;;;;;;;;;;;;10.47;69.09;100380.22;3148082;28;20230;-69
2022/11/09 02:20:23;;;;;;;68.57;30.23;;;;;;;10.12;69.56;100332.81;3152015;28;19934;-69
2022/11/09 02:21:55;;;;;;;71.18;33.53;;;;;;;10.42;69.83;100387.34;3158142;28;20416;-69
2022/11/09 02:23:27;;;;;;;75.30;33.60;;;;;;;10.43;70.13;100389.03;3157470;28;20131;-69
2022/11/09 02:24:58;;;;;;;70.05;33.90;;;;;;;10.41;69.69;100378.69;3157272;28;20044;-69
2022/11/09 02:26:33;;;;;;;66.20;30.77;;;;;;;10.46;69.71;100384.56;3158401;28;20130;-69
2022/11/09 02:28:05;;;;;;;72.68;33.13;;;;;;;10.47;69.86;100388.03;3156274;28;20044;-68
2022/11/09 02:29:40;;;;;;;75.18;34.25;;;;;;;10.48;69.82;100395.78;3152609;28;20112;-69
2022/11/09 02:31:15;;;;;;;72.18;33.47;;;;;;;10.47;69.59;100386.28;3158600;28;20082;-69
2022/11/09 02:32:47;;;;;;;74.53;33.20;;;;;;;10.49;69.86;100391.44;3154859;28;20044;-69
2022/11/09 02:34:20;;;;;;;66.78;32.83;;;;;;;10.21;69.77;100353.31;3158138;28;20070;-69
2022/11/09 02:35:53;;;;;;;68.30;33.13;;;;;;;10.48;69.39;100394.94;3158546;28;20538;-68
2022/11/09 02:37:27;;;;;;;73.97;32.42;;;;;;;10.50;69.49;100394.88;3156488;28;20106;-69
2022/11/09 02:38:59;;;;;;;77.78;33.80;;;;;;;10.47;69.45;100394.09;3156850;28;20052;-68
2022/11/09 02:40:36;;;;;;;68.80;32.47;;;;;;;10.48;69.48;100401.00;3162030;28;20055;-69
2022/11/09 02:42:10;;;;;;;69.63;32.30;;;;;;;10.17;69.39;100354.31;3158282;28;20437;-69
2022/11/09 02:43:42;;;;;;;75.80;33.35;;;;;;;10.46;69.54;100396.75;3158226;28;20126;-69
2022/11/09 02:45:14;;;;;;;65.80;32.03;;;;;;;10.44;69.87;100403.75;3158485;28;20048;-70
2022/11/09 02:46:46;;;;;;;67.22;33.65;;;;;;;10.39;69.88;100397.88;3158277;28;20063;-69
2022/11/09 02:48:18;;;;;;;66.57;33.55;;;;;;;10.38;70.01;100403.97;3157840;28;20140;-69
2022/11/09 02:49:50;;;;;;;76.30;34.10;;;;;;;10.34;70.21;100404.97;3147389;28;20079;-69
2022/11/09 02:51:23;;;;;;;65.03;31.95;;;;;;;9.97;70.47;100348.97;3158257;28;20113;-69
2022/11/09 02:52:55;;;;;;;70.78;33.08;;;;;;;10.24;70.45;100399.22;3158178;28;20109;-69
2022/11/09 02:54:27;;;;;;;69.75;33.70;;;;;;;10.19;70.91;100399.38;3157895;28;20373;-69
2022/11/09 02:55:58;;;;;;;73.85;33.17;;;;;;;10.16;70.77;100393.41;3157998;28;20055;-69
2022/11/09 02:57:29;;;;;;;68.35;31.52;;;;;;;10.17;70.66;100397.72;3157775;28;20104;-69
2022/11/09 02:59:02;;;;;;;71.57;31.90;;;;;;;10.16;70.69;100396.88;3158195;28;20105;-69
2022/11/09 03:00:33;;;;;;;72.32;33.30;;;;;;;10.20;70.68;100400.22;3158091;28;20048;-69
2022/11/09 03:02:05;;;;;;;60.17;30.52;;;;;;;10.21;70.45;100405.38;3157814;28;20044;-69
2022/11/09 03:03:37;;;;;;;73.07;33.08;;;;;;;10.04;70.54;100373.88;3158172;28;20040;-69
2022/11/09 03:05:09;;;;;;;72.03;31.85;;;;;;;10.21;70.41;100399.31;3158255;28;20048;-70
2022/11/09 03:06:43;;;;;;;74.30;31.95;;;;;;;10.23;70.56;100408.78;3158008;28;20052;-71
2022/11/09 03:08:14;;;;;;;60.00;31.13;;;;;;;10.21;70.32;100401.94;3157959;28;20048;-70
2022/11/09 03:09:46;;;;;;;67.63;32.00;;;;;;;10.21;70.48;100410.59;3165834;28;20051;-68
2022/11/09 03:11:18;;;;;;;65.13;32.10;;;;;;;10.20;70.45;100408.00;3163753;28;20486;-69
2022/11/09 03:12:50;;;;;;;71.70;33.22;;;;;;;10.19;70.29;100407.16;3157820;28;20055;-68
2022/11/09 03:14:21;;;;;;;65.43;30.27;;;;;;;10.20;70.30;100403.69;3158200;28;20062;-68
2022/11/09 03:15:53;;;;;;;66.68;31.02;;;;;;;10.20;70.12;100408.00;3157622;28;20052;-68
2022/11/09 03:17:25;;;;;;;63.20;30.75;;;;;;;10.19;70.36;100407.16;3157156;28;20096;-69
2022/11/09 03:18:57;;;;;;;65.65;31.80;;;;;;;10.18;70.46;100405.47;3158042;28;20060;-69
2022/11/09 03:20:29;;;;;;;67.03;31.60;;;;;;;10.18;69.97;100402.88;3158050;28;20549;-68
2022/11/09 03:22:02;;;;;;;65.13;29.75;;;;;;;10.19;69.99;100408.94;3157632;28;20070;-69
2022/11/09 03:23:34;;;;;;;69.13;32.28;;;;;;;10.17;70.04;100408.13;3157782;28;20060;-68
2022/11/09 03:25:07;;;;;;;59.80;31.30;;;;;;;10.06;70.05;100387.69;3157787;28;20048;-69
2022/11/09 03:26:39;;;;;;;68.38;31.85;;;;;;;9.93;70.18;100374.22;3157853;28;20097;-69
2022/11/09 03:28:11;;;;;;;70.00;31.70;;;;;;;10.14;70.11;100405.63;3157547;28;20113;-67
2022/11/09 03:29:43;;;;;;;80.50;31.90;;;;;;;10.13;69.99;100409.97;3157372;28;20056;-68
2022/11/09 03:31:15;;;;;;;76.57;32.40;;;;;;;10.12;70.12;100410.91;3147208;28;20143;-68
2022/11/09 03:32:47;;;;;;;64.05;31.80;;;;;;;10.05;69.96;100398.97;3157747;28;20112;-68
2022/11/09 03:34:17;;;;;;;66.55;32.35;;;;;;;10.12;70.29;100405.69;3157755;28;20044;-69
2022/11/09 03:35:50;;;;;;;68.07;32.22;;;;;;;10.09;70.14;100404.94;3157277;28;20104;-69
2022/11/09 03:37:23;;;;;;;67.80;31.05;;;;;;;10.13;70.05;100415.19;3157659;28;20505;-69
2022/11/09 03:38:55;;;;;;;67.88;32.05;;;;;;;10.10;70.02;100407.47;3158015;28;20065;-69
2022/11/09 03:40:26;;;;;;;71.75;30.20;;;;;;;10.11;70.41;100405.72;3161625;28;20509;-68
2022/11/09 03:41:58;;;;;;;62.70;30.67;;;;;;;10.11;70.33;100409.16;3157612;28;20040;-69
2022/11/09 03:43:30;;;;;;;69.95;32.78;;;;;;;9.96;70.13;100391.47;3157490;28;20480;-69
2022/11/09 03:45:02;;;;;;;70.15;32.05;;;;;;;9.86;70.18;100369.28;3157354;28;20048;-69
2022/11/09 03:46:33;;;;;;;66.75;31.85;;;;;;;10.08;70.53;100411.03;3157376;28;20056;-69
2022/11/09 03:48:05;;;;;;;69.97;31.58;;;;;;;10.05;70.35;100406.78;3157521;28;20062;-68
2022/11/09 03:49:37;;;;;;;70.28;32.40;;;;;;;10.02;70.27;100404.28;3157438;28;20063;-68
2022/11/09 03:51:09;;;;;;;72.88;31.88;;;;;;;10.05;70.17;100416.34;3157669;28;20301;-69
2022/11/09 03:52:44;;;;;;;69.03;31.75;;;;;;;10.01;70.33;100413.00;3157255;28;20048;-69
2022/11/09 03:54:16;;;;;;;63.55;30.35;;;;;;;10.01;70.34;100416.44;3157416;28;20109;-69
2022/11/09 03:55:48;;;;;;;70.43;31.33;;;;;;;10.01;70.38;100413.84;3155931;28;20052;-68
2022/11/09 03:57:20;;;;;;;64.90;31.05;;;;;;;9.99;70.03;100412.19;3151648;28;20464;-69
2022/11/09 03:58:52;;;;;;;65.60;31.25;;;;;;;9.96;69.98;100404.47;3157161;28;20173;-69
2022/11/09 04:00:23;;;;;;;60.80;30.80;;;;;;;9.96;70.51;100410.53;3157417;28;20101;-68
2022/11/09 04:01:54;;;;;;;69.78;32.13;;;;;;;9.90;70.34;100400.34;3157401;28;20052;-69
2022/11/09 04:03:26;;;;;;;70.03;30.48;;;;;;;9.85;70.17;100398.78;3157568;28;20099;-69
2022/11/09 04:04:58;;;;;;;64.57;31.08;;;;;;;9.95;69.97;100408.00;3157239;28;20097;-68
2022/11/09 04:06:30;;;;;;;58.00;30.85;;;;;;;9.89;70.35;100403.84;3157195;28;20048;-68
2022/11/09 04:08:03;;;;;;;65.78;30.67;;;;;;;9.93;70.49;100408.03;3168978;28;20055;-68
2022/11/09 04:09:35;;;;;;;;;;;;;;;9.83;70.36;100405.81;3166006;28;20044;-68
2022/11/09 04:11:07;;;;;;;61.78;28.83;;;;;;;9.79;70.69;100403.31;3164632;28;19997;-69
2022/11/09 04:12:39;;;;;;;61.45;29.88;;;;;;;9.81;70.31;100400.63;3157285;28;20102;-68
2022/11/09 04:14:11;;;;;;;59.35;30.02;;;;;;;9.78;70.45;100400.72;3157161;28;20573;-68
2022/11/09 04:15:43;;;;;;;61.53;30.77;;;;;;;9.83;70.36;100409.25;3156867;28;20101;-68
2022/11/09 04:17:14;;;;;;;63.90;30.98;;;;;;;9.86;70.45;100408.31;3157590;28;20047;-68
2022/11/09 04:18:46;;;;;;;67.50;31.92;;;;;;;9.85;70.44;100409.19;3157307;28;20059;-68
2022/11/09 04:20:17;;;;;;;67.25;31.33;;;;;;;9.83;70.54;100404.03;3156807;28;20052;-68
2022/11/09 04:21:49;;;;;;;74.20;31.17;;;;;;;9.83;70.47;100408.41;3156916;28;20044;-69
2022/11/09 04:23:22;;;;;;;58.92;31.10;;;;;;;9.80;70.74;100405.00;3157312;28;20050;-68
2022/11/09 04:24:54;;;;;;;66.22;31.80;;;;;;;9.82;70.55;100404.09;3156841;28;20475;-68
2022/11/09 04:26:26;;;;;;;69.30;32.78;;;;;;;9.77;70.64;100409.44;3156202;28;20047;-69
2022/11/09 04:27:58;;;;;;;63.90;32.00;;;;;;;9.43;70.49;100355.06;3157057;28;20512;-68
2022/11/09 04:29:30;;;;;;;73.57;33.35;;;;;;;9.78;70.30;100414.59;3155420;28;20149;-68
2022/11/09 04:31:02;;;;;;;66.35;31.50;;;;;;;9.77;70.66;100417.25;3156100;28;20052;-68
2022/11/09 04:32:34;;;;;;;65.57;32.08;;;;;;;9.75;70.44;100412.09;3156053;28;20044;-68
2022/11/09 04:34:05;;;;;;;60.28;30.58;;;;;;;9.74;70.75;100412.16;3155770;28;20044;-69
2022/11/09 04:35:37;;;;;;;68.13;31.58;;;;;;;9.72;70.89;100414.78;3156060;28;20056;-68
2022/11/09 04:37:10;;;;;;;69.32;30.48;;;;;;;9.70;70.66;100408.81;3156076;28;20055;-69
2022/11/09 04:38:43;;;;;;;64.47;30.25;;;;;;;9.67;70.73;100411.50;3156633;28;20100;-69
2022/11/09 04:40:15;;;;;;;65.60;32.00;;;;;;;9.65;70.75;100413.28;3161106;28;20505;-69
2022/11/09 04:41:47;;;;;;;66.77;32.20;;;;;;;9.63;70.75;100415.06;3156352;28;20082;-69
2022/11/09 04:43:19;;;;;;;68.55;30.52;;;;;;;9.62;70.77;100418.59;3156163;28;20101;-70
2022/11/09 04:44:51;;;;;;;80.13;31.35;;;;;;;9.56;70.66;100413.56;3156001;28;20074;-69
2022/11/09 04:46:22;;;;;;;74.72;32.75;;;;;;;9.60;70.68;100415.16;3156017;28;21167;-70
2022/11/09 04:47:57;;;;;;;70.25;32.28;;;;;;;9.60;70.73;100417.78;3155900;28;20134;-70
2022/11/09 04:49:29;;;;;;;69.80;31.33;;;;;;;9.59;70.90;100425.63;3153459;28;20110;-69
2022/11/09 04:51:02;;;;;;;70.57;30.92;;;;;;;9.57;70.84;100423.91;3156007;28;20070;-70
2022/11/09 04:52:33;;;;;;;69.80;31.27;;;;;;;9.54;70.63;100417.97;3155983;28;20044;-69
2022/11/09 04:54:06;;;;;;;79.28;31.65;;;;;;;9.55;70.90;100422.25;3156302;28;20116;-68
2022/11/09 04:55:38;;;;;;;68.85;32.72;;;;;;;9.50;70.75;100411.16;3156066;28;20059;-69
2022/11/09 04:57:10;;;;;;;70.55;33.70;;;;;;;9.51;70.73;100418.91;3155796;28;20565;-70
2022/11/09 04:58:42;;;;;;;72.70;33.28;;;;;;;9.43;70.65;100404.44;3156129;28;20047;-69
2022/11/09 05:00:14;;;;;;;69.38;31.23;;;;;;;9.51;70.82;100426.72;3156581;28;20097;-69
2022/11/09 05:01:46;;;;;;;69.20;31.27;;;;;;;9.50;70.96;100427.63;3156186;28;20082;-69
2022/11/09 05:03:18;;;;;;;65.88;30.40;;;;;;;9.48;70.83;100432.00;3155920;28;20422;-69
2022/11/09 05:04:50;;;;;;;65.85;31.33;;;;;;;9.44;71.08;100422.59;3156014;28;20566;-69
2022/11/09 05:06:34;;;;;;;66.07;31.65;;;;;;;9.47;70.80;100432.91;3155998;28;20052;-69
2022/11/09 05:08:06;;;;;;;;;;;;;;;9.39;70.88;100426.25;3156372;28;20047;-69
2022/11/09 05:09:39;;;;;;;75.80;32.03;;;;;;;9.40;71.26;100430.53;3158803;28;19927;-69
2022/11/09 05:11:11;;;;;;;67.72;31.58;;;;;;;9.41;71.32;100427.91;3156324;28;20098;-69
2022/11/09 05:12:43;;;;;;;70.90;31.35;;;;;;;9.44;70.97;100426.97;3156981;28;20052;-70
2022/11/09 05:14:15;;;;;;;73.10;32.65;;;;;;;9.45;71.10;100428.66;3156686;28;20445;-69
2022/11/09 05:15:46;;;;;;;77.55;32.40;;;;;;;9.47;71.48;100430.31;3156688;28;20052;-68
2022/11/09 05:17:18;;;;;;;75.57;32.70;;;;;;;9.48;71.40;100431.16;3157199;28;20109;-68
2022/11/09 05:18:50;;;;;;;65.82;30.58;;;;;;;9.19;71.45;100380.91;3157612;28;20113;-69
2022/11/09 05:20:22;;;;;;;69.75;31.48;;;;;;;9.51;71.66;100434.50;3169584;28;20047;-69
2022/11/09 05:21:54;;;;;;;72.10;32.90;;;;;;;9.48;71.38;100429.41;3144362;28;20210;-68
2022/11/09 05:25:16;;;;;;;77.30;32.33;;;;;;;9.54;71.47;100441.38;3156907;28;20044;-68
2022/11/09 05:26:48;;;;;;;73.95;32.42;;;;;;;9.55;71.36;100438.75;3156408;28;20112;-68
2022/11/09 05:28:20;;;;;;;70.93;31.92;;;;;;;9.58;71.35;100440.38;3165703;28;20052;-68
2022/11/09 05:29:51;;;;;;;68.22;30.70;;;;;;;9.57;71.69;100434.31;3168338;28;20126;-68
2022/11/09 05:31:23;;;;;;;74.80;33.67;;;;;;;9.63;71.58;100445.44;3156826;28;20483;-68
2022/11/09 05:32:55;;;;;;;75.82;31.88;;;;;;;9.63;71.22;100437.63;3162464;28;20097;-69
2022/11/09 05:34:27;;;;;;;69.53;32.08;;;;;;;9.68;71.21;100444.41;3156880;28;20044;-69
2022/11/09 05:35:59;;;;;;;85.95;34.33;;;;;;;9.67;71.36;100447.91;3156598;28;20048;-68
2022/11/09 05:37:31;;;;;;;80.75;32.78;;;;;;;9.69;71.52;100443.50;3156327;28;20052;-69
2022/11/09 05:39:03;;;;;;;76.55;32.83;;;;;;;9.31;71.24;100377.91;3158287;28;20062;-69
2022/11/09 05:40:35;;;;;;;73.35;33.58;;;;;;;9.70;71.33;100450.41;3161694;28;20051;-69
2022/11/09 05:42:09;;;;;;;87.30;35.53;;;;;;;9.70;71.19;100445.22;3159086;28;20130;-69
2022/11/09 05:43:40;;;;;;;;;;;;;;;9.66;71.13;100451.38;3159543;28;20492;-69
2022/11/09 05:45:14;;;;;;;82.13;32.63;;;;;;;9.65;71.55;100451.44;3159072;28;19985;-69
2022/11/09 05:46:46;;;;;;;76.10;32.88;;;;;;;9.68;71.38;100449.59;3158123;28;20396;-69
2022/11/09 05:48:18;;;;;;;74.53;32.72;;;;;;;9.67;71.55;100449.63;3158912;28;20109;-69
2022/11/09 05:49:50;;;;;;;64.88;32.47;;;;;;;9.73;71.23;100465.91;3154681;28;20056;-69
2022/11/09 05:51:23;;;;;;;74.60;34.10;;;;;;;9.76;71.58;100460.63;3155559;28;20437;-69
2022/11/09 05:52:54;;;;;;;75.90;34.20;;;;;;;9.79;71.24;100462.28;3164081;28;20047;-69
2022/11/09 05:54:26;;;;;;;77.00;33.55;;;;;;;9.77;71.24;100459.72;3167470;28;20048;-69
2022/11/09 05:56:04;;;;;;;76.75;32.25;;;;;;;9.79;71.64;100454.47;3158958;28;20051;-69
2022/11/09 05:57:36;;;;;;;70.53;31.63;;;;;;;9.81;71.23;100455.25;3158670;28;20090;-69
2022/11/09 05:59:08;;;;;;;71.75;33.88;;;;;;;9.87;71.22;100467.22;3158801;28;20056;-70
2022/11/09 06:00:40;;;;;;;68.05;32.53;;;;;;;9.87;71.54;100460.25;3159289;28;20044;-70
2022/11/09 06:02:12;;;;;;;74.97;32.50;;;;;;;9.93;71.16;100470.47;3158855;28;20488;-69
2022/11/09 06:03:44;;;;;;;72.97;32.33;;;;;;;9.93;71.46;100470.47;3158649;28;20048;-67
2022/11/09 06:05:16;;;;;;;80.03;33.53;;;;;;;9.92;71.23;100470.53;3158696;28;20527;-69
2022/11/09 06:06:48;;;;;;;77.80;33.03;;;;;;;9.93;71.28;100474.84;3158432;28;20059;-69
2022/11/09 06:08:19;;;;;;;73.13;31.88;;;;;;;9.91;71.25;100468.81;3159292;28;20101;-68
2022/11/09 06:09:51;;;;;;;68.03;32.90;;;;;;;9.87;71.25;100467.22;3170295;28;20051;-68
2022/11/09 06:11:25;;;;;;;68.40;33.40;;;;;;;9.87;71.08;100475.03;3158897;28;20048;-70
2022/11/09 06:12:57;;;;;;;74.82;31.88;;;;;;;9.88;71.15;100489.72;3158626;28;20051;-71
2022/11/09 06:14:28;;;;;;;70.55;32.40;;;;;;;9.86;71.28;100487.19;3158615;28;20113;-70
2022/11/09 06:16:01;;;;;;;72.10;34.72;;;;;;;9.78;71.07;100482.22;3158576;28;20133;-68
2022/11/09 06:17:32;;;;;;;79.75;34.42;;;;;;;9.80;71.38;100485.63;3158295;28;20047;-67
2022/11/09 06:19:04;;;;;;;76.93;34.88;;;;;;;9.69;71.17;100464.28;3164572;28;20044;-71
2022/11/09 06:20:36;;;;;;;80.25;35.28;;;;;;;9.59;71.66;100455.09;3158648;28;20543;-68
2022/11/09 06:22:08;;;;;;;79.25;36.17;;;;;;;9.78;71.90;100486.56;3158697;28;20109;-69
2022/11/09 06:23:40;;;;;;;80.45;36.45;;;;;;;9.83;72.12;100495.09;3158719;28;20105;-69
2022/11/09 06:25:12;;;;;;;91.80;35.55;;;;;;;9.79;71.94;100481.34;3158531;28;20051;-71
2022/11/09 06:26:45;;;;;;;80.50;37.20;;;;;;;9.89;72.32;100492.28;3157293;28;20508;-69
2022/11/09 06:28:17;;;;;;;;;;;;;;;9.85;72.24;100492.44;3171086;28;20048;-70
2022/11/09 06:29:49;;;;;;;86.40;39.53;;;;;;;9.83;72.57;100483.84;3170914;28;19924;-69
2022/11/09 06:31:21;;;;;;;95.32;40.50;;;;;;;9.87;72.57;100485.44;3162954;28;20047;-69
2022/11/09 06:32:58;;;;;;;86.45;37.80;;;;;;;9.94;72.63;100484.38;3158440;28;20117;-74
2022/11/09 06:34:30;;;;;;;82.82;40.75;;;;;;;9.96;73.03;100479.94;3158203;28;20105;-69
2022/11/09 06:36:03;;;;;;;87.55;40.50;;;;;;;10.00;72.86;100481.56;3158282;28;20127;-70
2022/11/09 06:37:34;;;;;;;85.97;40.65;;;;;;;10.01;72.60;100475.44;3158089;28;20044;-67
2022/11/09 06:39:07;;;;;;;92.32;37.33;;;;;;;10.09;72.62;100483.03;3158401;28;20048;-69
2022/11/09 06:40:39;;;;;;;83.97;37.38;;;;;;;10.08;72.56;100478.69;3158515;28;20124;-66
2022/11/09 06:42:12;;;;;;;77.82;38.75;;;;;;;10.13;72.19;100489.81;3158578;28;20055;-68
2022/11/09 06:43:45;;;;;;;79.63;36.70;;;;;;;10.15;72.24;100488.03;3158091;28;20536;-69
2022/11/09 06:45:16;;;;;;;73.10;34.92;;;;;;;10.18;72.05;100480.97;3158158;28;20127;-69
2022/11/09 06:46:48;;;;;;;79.82;35.63;;;;;;;10.22;72.31;100486.91;3158517;28;20517;-68
2022/11/09 06:48:21;;;;;;;79.72;40.50;;;;;;;10.26;71.99;100475.50;3168831;28;20051;-65
2022/11/09 06:49:53;;;;;;;190.10;92.35;;;;;;;10.38;72.30;100485.56;3164714;28;20050;-71
2022/11/09 06:51:25;;;;;;;189.90;92.95;;;;;;;10.56;72.28;100486.69;3170302;28;20116;-69
2022/11/09 06:52:58;;;;;;;209.80;95.90;;;;;;;10.90;72.25;100482.88;3169684;28;20062;-67
2022/11/09 06:54:30;;;;;;;124.47;59.33;;;;;;;11.09;71.87;100463.09;3170337;28;20135;-69
2022/11/09 06:56:03;;;;;;;100.53;50.45;;;;;;;11.53;71.88;100481.41;3168048;28;20048;-68
2022/11/09 06:57:36;;;;;;;133.82;60.90;;;;;;;11.89;71.33;100483.56;3170254;28;20097;-68
2022/11/09 06:59:08;;;;;;;140.30;73.57;;;;;;;12.18;70.35;100477.13;3170724;28;20051;-64
2022/11/09 07:00:40;;;;;;;74.50;38.67;;;;;;;12.55;70.19;100482.63;3170004;27;20075;-67
2022/11/09 07:02:14;;;;;;;78.68;36.78;;;;;;;12.89;69.08;100475.00;3170351;28;20432;-68
2022/11/09 07:03:46;;;;;;;197.70;98.65;;;;;;;13.18;68.20;100476.31;3169566;28;20048;-70
2022/11/09 07:05:18;;;;;;;161.13;86.03;;;;;;;13.45;67.51;100477.78;3168686;28;20052;-69